createdAt,value
2022-10-18T04:00:31.239Z,7.50
2022-10-18T04:11:36.093Z,5.50
2022-10-18T04:22:35.975Z,5.60
2022-10-18T04:33:35.839Z,5.50
2022-10-18T04:44:35.720Z,5.20
2022-10-18T04:55:35.586Z,5.50
2022-10-18T05:06:36.473Z,6.70
2022-10-18T05:17:35.342Z,7.20
2022-10-18T05:28:40.192Z,5.90
2022-10-18T05:39:35.079Z,4.50
2022-10-18T05:50:38.067Z,5.60
2022-10-18T06:01:34.827Z,6.90
2022-10-18T06:12:34.706Z,5.60
2022-10-18T06:23:34.594Z,5.40
2022-10-18T06:34:34.463Z,5.20
2022-10-18T06:45:34.337Z,5.30
2022-10-18T06:56:34.204Z,6.40
2022-10-18T07:07:34.417Z,5.30
2022-10-18T07:18:33.949Z,5.10
2022-10-18T07:29:33.856Z,6.10
2022-10-18T07:40:33.727Z,9.10
2022-10-18T07:51:33.579Z,7.70
2022-10-18T08:02:33.459Z,8.60
2022-10-18T08:13:33.333Z,9.40
2022-10-18T08:24:33.221Z,9.00
2022-10-18T08:35:33.085Z,8.70
2022-10-18T08:46:33.959Z,8.50
2022-10-18T08:57:33.253Z,10.10
2022-10-18T09:08:32.709Z,10.60
2022-10-18T09:19:32.581Z,10.10
2022-10-18T09:30:32.473Z,8.90
2022-10-18T09:41:32.331Z,11.00
2022-10-18T09:52:32.561Z,11.00
2022-10-18T10:03:32.083Z,8.60
2022-10-18T10:14:31.967Z,8.60
2022-10-18T10:25:31.834Z,10.10
2022-10-18T10:36:32.718Z,8.80
2022-10-18T10:47:31.590Z,6.30
2022-10-18T10:58:31.462Z,7.50
2022-10-18T11:09:31.889Z,6.30
2022-10-18T11:20:31.217Z,7.30
2022-10-18T11:31:31.104Z,5.20
2022-10-18T11:42:30.990Z,7.00
2022-10-18T11:53:30.878Z,6.10
2022-10-18T12:04:30.726Z,4.40
2022-10-18T12:15:30.619Z,4.70
2022-10-18T12:26:30.474Z,5.00
2022-10-18T12:37:30.714Z,3.90
2022-10-18T12:48:30.241Z,4.70
2022-10-18T12:59:30.109Z,6.10
2022-10-18T13:10:29.981Z,5.80
2022-10-18T13:21:29.852Z,4.90
2022-10-18T13:32:29.959Z,4.00
2022-10-18T13:43:29.611Z,4.80
2022-10-18T13:54:29.498Z,5.90
2022-10-18T14:05:29.369Z,3.70
2022-10-18T14:16:29.236Z,2.20
2022-10-18T14:27:29.102Z,2.40
2022-10-18T14:38:29.000Z,3.50
2022-10-18T14:49:28.853Z,3.00
2022-10-18T15:00:28.732Z,3.70
2022-10-18T15:11:28.603Z,3.30
2022-10-18T15:22:32.667Z,3.80
2022-10-18T15:33:28.354Z,2.80
2022-10-18T15:44:28.234Z,3.30
2022-10-18T15:55:28.104Z,3.80
2022-10-18T16:06:27.992Z,3.00
2022-10-18T16:17:27.867Z,4.00
2022-10-18T16:28:27.814Z,2.40
2022-10-18T16:39:27.603Z,1.90
2022-10-18T16:50:28.414Z,2.70
2022-10-18T17:01:27.458Z,2.40
2022-10-18T17:12:27.242Z,3.10
2022-10-18T17:23:27.116Z,3.00
2022-10-18T17:34:26.993Z,4.10
2022-10-18T17:45:26.852Z,4.10
2022-10-18T17:56:26.726Z,4.80
2022-10-18T18:07:26.764Z,4.60
2022-10-18T18:18:27.473Z,7.10
2022-10-18T18:29:26.362Z,5.80
2022-10-18T18:40:26.259Z,4.90
2022-10-18T18:51:26.093Z,4.30
2022-10-18T19:02:25.966Z,6.10
2022-10-18T19:13:25.845Z,7.40
2022-10-18T19:24:25.731Z,6.30
2022-10-18T19:35:25.595Z,5.40
2022-10-18T19:46:25.476Z,4.10
2022-10-18T19:57:25.344Z,4.40
2022-10-18T20:08:25.219Z,4.80
2022-10-18T20:19:25.098Z,6.20
2022-10-18T20:30:24.974Z,6.80
2022-10-18T20:41:24.861Z,8.00
2022-10-18T20:52:24.736Z,7.70
